Time;durP1;ratioP1;P1;durP2;ratioP2;P2;SDS_P1;SDS_P2;PMS_P1;PMS_P2;Temp;Humidity;BMP_temperature;BMP_pressure;BME280_temperature;BME280_humidity;BME280_pressure;Samples;Min_cycle;Max_cycle;Signal;HPM_P1;HPM_P2
2023/02/17 00:00:22;;;;;;;28.92;23.25;;;;;;;;;;10329598;28;20067;-65
2023/02/17 00:05:20;;;;;;;25.90;21.10;;;;;;;;;;10337468;28;20515;-66
2023/02/17 00:10:19;;;;;;;30.88;23.35;;;;;;;;;;10330943;28;20075;-65
2023/02/17 00:15:17;;;;;;;30.05;23.55;;;;;;;;;;10329285;28;20118;-65
2023/02/17 00:20:16;;;;;;;27.00;22.58;;;;;;;;;;10330738;28;20072;-65
2023/02/17 00:25:15;;;;;;;30.38;22.27;;;;;;;;;;10325173;28;20060;-66
2023/02/17 00:30:13;;;;;;;28.42;23.70;;;;;;;;;;10329767;28;20522;-63
2023/02/17 00:35:11;;;;;;;27.73;23.27;;;;;;;;;;10330566;28;20526;-65
2023/02/17 00:40:13;;;;;;;28.65;23.15;;;;;;;;;;10310745;28;20674;-65
2023/02/17 00:45:11;;;;;;;26.50;21.25;;;;;;;;;;10336311;28;20075;-63
2023/02/17 00:50:10;;;;;;;28.42;20.52;;;;;;;;;;10316116;28;20079;-64
2023/02/17 00:55:08;;;;;;;28.77;22.13;;;;;;;;;;10315365;28;20076;-65
2023/02/17 01:00:08;;;;;;;28.83;20.88;;;;;;;;;;10322818;28;20072;-65
2023/02/17 01:05:07;;;;;;;26.92;22.15;;;;;;;;;;10334574;28;20526;-65
2023/02/17 01:10:06;;;;;;;25.77;21.05;;;;;;;;;;10337408;28;20075;-65
2023/02/17 01:15:04;;;;;;;24.33;19.60;;;;;;;;;;10337925;28;20075;-65
2023/02/17 01:20:05;;;;;;;25.40;20.33;;;;;;;;;;10318573;28;20044;-66
2023/02/17 01:25:03;;;;;;;27.90;21.02;;;;;;;;;;10336884;28;20101;-65
2023/02/17 01:30:01;;;;;;;24.88;19.60;;;;;;;;;;10335746;28;20079;-65
2023/02/17 01:35:00;;;;;;;24.42;19.10;;;;;;;;;;10336343;28;20063;-65
2023/02/17 01:39:59;;;;;;;27.13;21.23;;;;;;;;;;10329984;28;20076;-65
2023/02/17 01:45:30;;;;;;;25.52;20.20;;;;;;;;;;10337081;28;20083;-65
2023/02/17 01:50:31;;;;;;;23.80;18.75;;;;;;;;;;10250778;28;20076;-65
2023/02/17 01:55:32;;;;;;;22.48;18.52;;;;;;;;;;10308161;28;20090;-66
2023/02/17 02:00:34;;;;;;;;;;;;;;;;;;10319338;28;20083;-65
2023/02/17 02:05:32;;;;;;;23.35;17.85;;;;;;;;;;10335055;28;20400;-65
2023/02/17 02:10:35;;;;;;;21.85;18.65;;;;;;;;;;10335879;28;20535;-66
2023/02/17 02:15:40;;;;;;;21.48;17.73;;;;;;;;;;10317607;28;20056;-65
2023/02/17 02:20:48;;;;;;;20.38;17.27;;;;;;;;;;10335390;28;20092;-64
2023/02/17 02:26:06;;;;;;;22.60;17.42;;;;;;;;;;10334744;28;20079;-64
2023/02/17 02:31:13;;;;;;;22.38;17.83;;;;;;;;;;10317390;28;20076;-65
2023/02/17 02:36:14;;;;;;;18.58;15.02;;;;;;;;;;10334521;28;20506;-65
2023/02/17 02:41:14;;;;;;;24.33;17.77;;;;;;;;;;10316600;28;20048;-65
2023/02/17 02:46:13;;;;;;;19.60;16.35;;;;;;;;;;10333107;28;20078;-65
2023/02/17 02:51:23;;;;;;;35.63;26.73;;;;;;;;;;10321971;28;20083;-65
2023/02/17 02:56:25;;;;;;;19.48;16.05;;;;;;;;;;10314368;28;20084;-65
2023/02/17 03:01:29;;;;;;;23.52;15.73;;;;;;;;;;10314621;28;20044;-65
2023/02/17 03:06:31;;;;;;;15.57;13.30;;;;;;;;;;10291161;28;20072;-65
2023/02/17 03:11:32;;;;;;;24.63;18.80;;;;;;;;;;10292074;28;20554;-65
2023/02/17 03:16:32;;;;;;;20.40;15.93;;;;;;;;;;10273733;28;20087;-65
2023/02/17 03:21:35;;;;;;;17.75;14.77;;;;;;;;;;10291682;28;20068;-65
2023/02/17 03:26:33;;;;;;;17.38;13.20;;;;;;;;;;10291535;28;20103;-66
2023/02/17 03:31:32;;;;;;;19.60;15.10;;;;;;;;;;10276020;28;20068;-66
2023/02/17 03:36:30;;;;;;;16.48;13.63;;;;;;;;;;10289179;28;20087;-66
2023/02/17 03:41:30;;;;;;;16.95;14.55;;;;;;;;;;10290632;28;20517;-66
2023/02/17 03:46:28;;;;;;;16.58;14.55;;;;;;;;;;10292547;28;20083;-66
2023/02/17 03:51:26;;;;;;;18.23;15.15;;;;;;;;;;10290679;28;20076;-65
2023/02/17 03:56:24;;;;;;;20.25;15.50;;;;;;;;;;10289210;28;20084;-65
2023/02/17 04:01:24;;;;;;;17.40;13.93;;;;;;;;;;10275112;28;20079;-65
2023/02/17 04:06:22;;;;;;;20.02;15.20;;;;;;;;;;10330210;28;20075;-65
2023/02/17 04:11:20;;;;;;;18.98;15.95;;;;;;;;;;10330358;28;20060;-64
2023/02/17 04:16:19;;;;;;;22.95;16.63;;;;;;;;;;10313602;28;20065;-65
2023/02/17 04:21:18;;;;;;;22.77;17.90;;;;;;;;;;10330593;28;20071;-66
2023/02/17 04:26:16;;;;;;;24.25;18.67;;;;;;;;;;10327346;28;20056;-65
2023/02/17 04:31:14;;;;;;;24.70;19.55;;;;;;;;;;10330069;28;20532;-65
2023/02/17 04:36:13;;;;;;;23.83;18.88;;;;;;;;;;10329763;28;20071;-66
2023/02/17 04:41:12;;;;;;;31.25;22.17;;;;;;;;;;10331278;28;20486;-65
2023/02/17 04:46:11;;;;;;;26.10;20.63;;;;;;;;;;10327719;28;20074;-66
2023/02/17 04:51:09;;;;;;;25.10;19.58;;;;;;;;;;10329867;28;20083;-66
2023/02/17 04:56:07;;;;;;;64.10;39.15;;;;;;;;;;10328537;28;20080;-66
2023/02/17 05:01:06;;;;;;;52.35;35.75;;;;;;;;;;10326730;28;20064;-66
2023/02/17 05:06:05;;;;;;;28.95;21.85;;;;;;;;;;10325004;28;20094;-66
2023/02/17 05:11:05;;;;;;;39.05;27.80;;;;;;;;;;10324910;28;20147;-66
2023/02/17 05:16:03;;;;;;;35.60;26.48;;;;;;;;;;10327062;28;20064;-66
2023/02/17 05:21:03;;;;;;;40.90;29.52;;;;;;;;;;10328700;28;20080;-66
2023/02/17 05:26:02;;;;;;;39.70;30.15;;;;;;;;;;10328254;28;20060;-66
2023/02/17 05:31:00;;;;;;;39.83;30.30;;;;;;;;;;10344605;28;20450;-65
2023/02/17 05:36:01;;;;;;;37.83;30.67;;;;;;;;;;10336122;28;20502;-65
2023/02/17 05:41:00;;;;;;;41.58;31.75;;;;;;;;;;10333350;28;20075;-66
2023/02/17 05:46:01;;;;;;;42.83;30.98;;;;;;;;;;10343456;28;20505;-66
2023/02/17 05:51:00;;;;;;;43.33;34.75;;;;;;;;;;10345590;28;20079;-65
2023/02/17 05:55:58;;;;;;;43.67;34.45;;;;;;;;;;10344183;28;20060;-66
2023/02/17 06:00:57;;;;;;;49.53;36.63;;;;;;;;;;10335058;28;20075;-65
2023/02/17 06:05:55;;;;;;;50.25;38.65;;;;;;;;;;10335113;28;20094;-66
2023/02/17 06:10:54;;;;;;;49.10;35.70;;;;;;;;;;10333237;28;20075;-66
2023/02/17 06:15:52;;;;;;;53.72;38.28;;;;;;;;;;10334764;28;20079;-66
2023/02/17 06:20:54;;;;;;;45.70;36.08;;;;;;;;;;10335270;28;20063;-65
2023/02/17 06:25:53;;;;;;;49.00;38.55;;;;;;;;;;10331723;28;20104;-65
2023/02/17 06:30:51;;;;;;;52.53;37.47;;;;;;;;;;10333305;28;20483;-66
2023/02/17 06:35:49;;;;;;;47.97;36.10;;;;;;;;;;10331862;28;20082;-66
2023/02/17 06:40:49;;;;;;;51.63;37.65;;;;;;;;;;10343851;28;20631;-65
2023/02/17 06:45:47;;;;;;;53.25;38.33;;;;;;;;;;10335610;28;20492;-67
2023/02/17 06:50:45;;;;;;;52.75;39.97;;;;;;;;;;10334836;28;20071;-67
2023/02/17 06:55:44;;;;;;;57.15;43.63;;;;;;;;;;10314850;28;20084;-66
2023/02/17 07:00:43;;;;;;;55.00;42.90;;;;;;;;;;10334357;28;20170;-67
2023/02/17 07:05:41;;;;;;;57.80;43.05;;;;;;;;;;10330725;28;20189;-67
2023/02/17 07:10:40;;;;;;;55.65;40.05;;;;;;;;;;10333138;28;20067;-67
2023/02/17 07:15:38;;;;;;;60.97;44.47;;;;;;;;;;10332750;28;20158;-67
2023/02/17 07:20:37;;;;;;;53.72;42.58;;;;;;;;;;10338365;28;20091;-67
2023/02/17 07:25:36;;;;;;;57.60;42.45;;;;;;;;;;10319344;28;20071;-67
2023/02/17 07:30:37;;;;;;;53.17;42.55;;;;;;;;;;10328246;28;20072;-66
2023/02/17 07:35:35;;;;;;;57.83;38.63;;;;;;;;;;10330433;28;20500;-67
2023/02/17 07:40:35;;;;;;;62.88;45.08;;;;;;;;;;10331110;28;20068;-67
2023/02/17 07:45:33;;;;;;;53.50;39.67;;;;;;;;;;10329748;28;20068;-65
2023/02/17 07:50:31;;;;;;;51.10;40.55;;;;;;;;;;10328685;28;20064;-67
2023/02/17 07:55:30;;;;;;;53.95;40.97;;;;;;;;;;10327614;28;20110;-67
2023/02/17 08:00:29;;;;;;;55.30;37.97;;;;;;;;;;10331414;28;20064;-67
2023/02/17 08:05:27;;;;;;;54.17;40.95;;;;;;;;;;10329518;28;20091;-67
2023/02/17 08:15:42;;;;;;;49.65;39.15;;;;;;;;;;10330495;28;20079;-67
2023/02/17 08:20:40;;;;;;;46.53;37.72;;;;;;;;;;10328991;28;20071;-67
2023/02/17 08:25:38;;;;;;;47.33;36.15;;;;;;;;;;10331638;28;20503;-67
2023/02/17 08:30:38;;;;;;;46.83;37.20;;;;;;;;;;10334241;28;20109;-67
2023/02/17 08:35:37;;;;;;;46.72;36.78;;;;;;;;;;10327451;28;20068;-67
2023/02/17 08:40:35;;;;;;;49.45;38.28;;;;;;;;;;10327475;28;20064;-67
2023/02/17 08:45:35;;;;;;;46.30;37.42;;;;;;;;;;10327084;28;20064;-65
2023/02/17 08:50:34;;;;;;;46.60;34.80;;;;;;;;;;10331034;28;20072;-66
2023/02/17 08:55:34;;;;;;;45.90;34.53;;;;;;;;;;10328716;28;20060;-66
2023/02/17 09:00:46;;;;;;;43.55;35.28;;;;;;;;;;10327467;28;20145;-65
2023/02/17 09:05:44;;;;;;;46.03;35.80;;;;;;;;;;10333738;28;20072;-66
2023/02/17 09:10:43;;;;;;;43.47;32.88;;;;;;;;;;10337977;28;20075;-67
2023/02/17 09:15:42;;;;;;;43.28;34.35;;;;;;;;;;10336675;28;20075;-67
2023/02/17 09:20:40;;;;;;;43.72;32.20;;;;;;;;;;10335226;28;20075;-66
2023/02/17 09:25:38;;;;;;;38.10;30.65;;;;;;;;;;10333236;28;20075;-67
2023/02/17 09:30:38;;;;;;;41.78;31.38;;;;;;;;;;10334724;28;20595;-66
2023/02/17 09:35:36;;;;;;;40.67;31.60;;;;;;;;;;10334677;28;20063;-65
2023/02/17 09:40:38;;;;;;;40.58;32.17;;;;;;;;;;10333449;28;20087;-67
2023/02/17 09:45:38;;;;;;;40.42;31.23;;;;;;;;;;10333550;28;20068;-67
2023/02/17 09:50:40;;;;;;;43.38;33.92;;;;;;;;;;10336876;28;20068;-67
2023/02/17 09:55:40;;;;;;;39.80;30.30;;;;;;;;;;10334162;28;20063;-67
2023/02/17 10:00:42;;;;;;;43.58;33.38;;;;;;;;;;10329939;28;20080;-66
2023/02/17 10:05:43;;;;;;;42.38;32.78;;;;;;;;;;10329971;28;20091;-65
2023/02/17 10:10:44;;;;;;;39.50;31.85;;;;;;;;;;10330741;28;20498;-65
2023/02/17 10:15:46;;;;;;;41.63;31.17;;;;;;;;;;10330028;28;20079;-65
2023/02/17 10:20:46;;;;;;;36.97;30.73;;;;;;;;;;10333493;28;20962;-65
2023/02/17 10:25:51;;;;;;;40.22;31.98;;;;;;;;;;10337101;28;20067;-66
2023/02/17 10:30:54;;;;;;;33.60;27.20;;;;;;;;;;10318201;28;20068;-66
2023/02/17 10:35:53;;;;;;;38.75;30.48;;;;;;;;;;10321908;28;20079;-66
2023/02/17 10:40:54;;;;;;;36.90;30.08;;;;;;;;;;10315833;28;20174;-66
2023/02/17 10:45:54;;;;;;;38.60;31.60;;;;;;;;;;10318572;28;20075;-66
2023/02/17 10:50:53;;;;;;;36.65;29.42;;;;;;;;;;10314986;28;20929;-65
2023/02/17 10:55:55;;;;;;;42.85;31.90;;;;;;;;;;10319087;28;20553;-66
2023/02/17 11:00:56;;;;;;;36.63;27.73;;;;;;;;;;10315330;28;20072;-65
2023/02/17 11:05:55;;;;;;;36.63;27.60;;;;;;;;;;10300244;28;20087;-66
2023/02/17 11:11:01;;;;;;;36.90;29.13;;;;;;;;;;10319346;28;20067;-66
2023/02/17 11:16:01;;;;;;;36.08;25.73;;;;;;;;;;10313440;28;20060;-65
2023/02/17 11:21:00;;;;;;;32.28;28.23;;;;;;;;;;10307931;28;20068;-65
2023/02/17 11:26:01;;;;;;;43.78;34.08;;;;;;;;;;10338409;28;20656;-66
2023/02/17 11:31:03;;;;;;;35.35;27.83;;;;;;;;;;10339945;28;20516;-66
2023/02/17 11:36:03;;;;;;;39.08;27.95;;;;;;;;;;10340849;28;20079;-66
2023/02/17 11:41:03;;;;;;;35.65;26.55;;;;;;;;;;10334805;28;20102;-67
2023/02/17 11:46:06;;;;;;;33.42;26.98;;;;;;;;;;10325148;28;20485;-66
2023/02/17 11:51:10;;;;;;;41.50;30.87;;;;;;;;;;10322307;28;20076;-66
2023/02/17 11:56:11;;;;;;;30.05;23.10;;;;;;;;;;10329440;28;20067;-66
2023/02/17 12:01:19;;;;;;;23.17;19.45;;;;;;;;;;10330000;28;20075;-66
2023/02/17 12:06:20;;;;;;;26.45;21.50;;;;;;;;;;10327121;28;20083;-67
2023/02/17 12:11:20;;;;;;;28.58;21.10;;;;;;;;;;10330730;28;20075;-66
2023/02/17 12:16:27;;;;;;;29.80;22.15;;;;;;;;;;10329001;28;20062;-65
2023/02/17 12:21:32;;;;;;;29.77;23.08;;;;;;;;;;10328036;28;20502;-66
2023/02/17 12:26:36;;;;;;;27.60;21.75;;;;;;;;;;10328374;28;20462;-66
2023/02/17 12:31:56;;;;;;;29.35;20.67;;;;;;;;;;10328565;28;20076;-66
2023/02/17 12:36:55;;;;;;;28.02;21.02;;;;;;;;;;10331342;28;20071;-67
2023/02/17 12:41:55;;;;;;;27.35;20.13;;;;;;;;;;10329971;28;20072;-67
2023/02/17 12:46:57;;;;;;;26.90;19.55;;;;;;;;;;10329356;28;20072;-65
2023/02/17 12:51:57;;;;;;;27.40;21.20;;;;;;;;;;10329528;28;20072;-65
2023/02/17 12:57:15;;;;;;;25.00;18.70;;;;;;;;;;10331242;28;20064;-66
2023/02/17 13:02:15;;;;;;;27.98;21.25;;;;;;;;;;10330974;28;20083;-67
2023/02/17 13:07:28;;;;;;;28.83;20.27;;;;;;;;;;10328579;28;20083;-66
2023/02/17 13:12:34;;;;;;;28.95;22.75;;;;;;;;;;10317711;28;20086;-67
2023/02/17 13:17:37;;;;;;;27.60;18.85;;;;;;;;;;10328608;28;20047;-67
2023/02/17 13:22:35;;;;;;;25.73;17.88;;;;;;;;;;10328466;28;20554;-66
2023/02/17 13:27:35;;;;;;;24.92;17.38;;;;;;;;;;10328374;28;20055;-66
2023/02/17 13:32:35;;;;;;;25.00;17.65;;;;;;;;;;10326916;28;20091;-66
2023/02/17 13:37:41;;;;;;;15.73;12.25;;;;;;;;;;10329150;28;20080;-66
2023/02/17 13:42:40;;;;;;;23.58;13.63;;;;;;;;;;10326733;28;20083;-66
2023/02/17 13:47:40;;;;;;;26.70;16.38;;;;;;;;;;10328009;28;20064;-66
2023/02/17 13:52:43;;;;;;;19.90;12.65;;;;;;;;;;10336460;28;20071;-67
2023/02/17 13:57:43;;;;;;;16.92;13.90;;;;;;;;;;10336637;28;20079;-69
2023/02/17 14:02:47;;;;;;;17.08;13.40;;;;;;;;;;10339851;28;20533;-62
2023/02/17 14:07:47;;;;;;;17.17;12.93;;;;;;;;;;10333733;28;20547;-62
2023/02/17 14:12:47;;;;;;;14.82;12.43;;;;;;;;;;10335979;28;20057;-61
2023/02/17 14:17:47;;;;;;;18.30;14.68;;;;;;;;;;10334478;28;20465;-62
2023/02/17 14:22:45;;;;;;;19.77;15.48;;;;;;;;;;10333321;28;20076;-62
2023/02/17 14:27:56;;;;;;;19.10;15.45;;;;;;;;;;10332533;28;20075;-62
2023/02/17 14:33:02;;;;;;;17.38;14.68;;;;;;;;;;10335372;28;20088;-62
2023/02/17 14:38:07;;;;;;;18.23;15.20;;;;;;;;;;10329236;28;20063;-62
2023/02/17 14:43:05;;;;;;;18.90;15.52;;;;;;;;;;10335182;28;20513;-61
2023/02/17 14:48:05;;;;;;;21.25;15.65;;;;;;;;;;10332959;28;20075;-61
2023/02/17 14:53:03;;;;;;;22.50;15.60;;;;;;;;;;10327558;28;20067;-62
2023/02/17 14:58:02;;;;;;;21.90;15.43;;;;;;;;;;10333260;28;20484;-62
2023/02/17 15:03:00;;;;;;;26.67;15.77;;;;;;;;;;10332076;28;20091;-62
2023/02/17 15:08:01;;;;;;;25.42;17.75;;;;;;;;;;10338134;28;20666;-61
2023/02/17 15:12:59;;;;;;;18.92;13.30;;;;;;;;;;10343705;28;20140;-62
2023/02/17 15:17:57;;;;;;;18.92;12.45;;;;;;;;;;10342209;28;20070;-62
2023/02/17 15:22:56;;;;;;;28.13;19.27;;;;;;;;;;10350860;28;20083;-62
2023/02/17 15:27:56;;;;;;;32.75;24.10;;;;;;;;;;10334681;28;20114;-63
2023/02/17 15:32:54;;;;;;;75.95;50.75;;;;;;;;;;10342412;28;20075;-63
2023/02/17 15:37:52;;;;;;;40.15;27.67;;;;;;;;;;10340045;28;20087;-61
2023/02/17 15:42:53;;;;;;;77.68;54.88;;;;;;;;;;10336511;28;20094;-61
2023/02/17 15:47:55;;;;;;;37.60;26.95;;;;;;;;;;10340370;28;20072;-62
2023/02/17 15:52:53;;;;;;;23.60;19.67;;;;;;;;;;10341757;28;20684;-62
2023/02/17 15:57:53;;;;;;;29.58;23.42;;;;;;;;;;10341571;28;20132;-62
2023/02/17 16:02:54;;;;;;;33.15;23.98;;;;;;;;;;10338263;28;20079;-62
2023/02/17 16:07:52;;;;;;;26.95;21.63;;;;;;;;;;10329713;28;20078;-62
2023/02/17 16:12:51;;;;;;;29.77;23.05;;;;;;;;;;10329939;28;20501;-63
2023/02/17 16:17:50;;;;;;;83.53;59.60;;;;;;;;;;10336194;28;20076;-62
2023/02/17 16:22:49;;;;;;;59.72;42.05;;;;;;;;;;10329909;28;20071;-62
2023/02/17 16:27:49;;;;;;;45.60;31.67;;;;;;;;;;10342300;28;20072;-62
2023/02/17 16:32:47;;;;;;;33.13;24.73;;;;;;;;;;10351993;28;20060;-62
2023/02/17 16:37:48;;;;;;;32.65;25.60;;;;;;;;;;10335744;28;20060;-61
2023/02/17 16:42:47;;;;;;;57.58;40.15;;;;;;;;;;10336102;28;20171;-62
2023/02/17 16:47:47;;;;;;;32.10;25.52;;;;;;;;;;10326872;28;20063;-62
2023/02/17 16:52:45;;;;;;;71.68;52.53;;;;;;;;;;10331709;28;20063;-62
2023/02/17 16:57:43;;;;;;;36.40;25.23;;;;;;;;;;10330151;28;20080;-61
2023/02/17 17:02:43;;;;;;;59.15;44.40;;;;;;;;;;10334583;28;20147;-61
2023/02/17 17:07:42;;;;;;;50.97;40.30;;;;;;;;;;10336078;28;20060;-63
2023/02/17 17:12:40;;;;;;;35.83;30.23;;;;;;;;;;10335937;28;20078;-61
2023/02/17 17:17:40;;;;;;;52.50;41.80;;;;;;;;;;10341248;28;20086;-61
2023/02/17 17:22:40;;;;;;;41.15;35.35;;;;;;;;;;10332689;28;20505;-61
2023/02/17 17:27:38;;;;;;;20.73;16.17;;;;;;;;;;10343520;28;20067;-60
2023/02/17 17:32:37;;;;;;;46.88;36.83;;;;;;;;;;10340030;28;20535;-61
2023/02/17 17:37:35;;;;;;;125.78;78.85;;;;;;;;;;10321889;28;21203;-61
2023/02/17 17:42:37;;;;;;;61.00;36.35;;;;;;;;;;10334576;28;20095;-61
2023/02/17 17:47:36;;;;;;;79.90;57.17;;;;;;;;;;10327222;28;20063;-61
2023/02/17 17:52:34;;;;;;;58.60;44.58;;;;;;;;;;10337153;28;20060;-61
2023/02/17 17:57:32;;;;;;;75.85;57.50;;;;;;;;;;10344300;28;20157;-62
2023/02/17 18:02:32;;;;;;;42.92;35.60;;;;;;;;;;10338051;28;20080;-60
2023/02/17 18:07:30;;;;;;;29.30;20.67;;;;;;;;;;10336524;28;20072;-62
2023/02/17 18:12:32;;;;;;;23.65;18.42;;;;;;;;;;10353805;28;20071;-61
2023/02/17 18:17:33;;;;;;;25.77;20.00;;;;;;;;;;10358360;28;20071;-61
2023/02/17 18:22:31;;;;;;;27.42;18.88;;;;;;;;;;10358737;28;20441;-61
2023/02/17 18:27:36;;;;;;;28.80;23.17;;;;;;;;;;10357624;28;20510;-61
2023/02/17 18:32:35;;;;;;;27.98;21.13;;;;;;;;;;10346588;28;20080;-61
2023/02/17 18:37:33;;;;;;;33.67;24.90;;;;;;;;;;10337226;28;20500;-60
2023/02/17 18:42:32;;;;;;;25.25;20.10;;;;;;;;;;10344942;28;20075;-61
2023/02/17 18:47:31;;;;;;;25.02;19.50;;;;;;;;;;10357158;28;20082;-63
2023/02/17 18:52:30;;;;;;;25.40;19.95;;;;;;;;;;10341849;28;20517;-62
2023/02/17 18:57:28;;;;;;;27.70;18.48;;;;;;;;;;10336238;28;20063;-61
2023/02/17 19:02:27;;;;;;;24.33;18.60;;;;;;;;;;10352652;28;20087;-61
2023/02/17 19:07:25;;;;;;;24.38;19.55;;;;;;;;;;10319138;28;20087;-62
2023/02/17 19:12:25;;;;;;;54.65;45.50;;;;;;;;;;10335446;28;20064;-62
2023/02/17 19:17:24;;;;;;;34.03;27.13;;;;;;;;;;10325741;28;20068;-62
2023/02/17 19:22:22;;;;;;;30.65;23.05;;;;;;;;;;10339206;28;20075;-61
2023/02/17 19:27:20;;;;;;;88.00;44.15;;;;;;;;;;10352815;28;20086;-62
2023/02/17 19:32:20;;;;;;;82.32;46.67;;;;;;;;;;10347136;28;20083;-62
2023/02/17 19:37:18;;;;;;;69.28;36.00;;;;;;;;;;10340671;28;20068;-60
2023/02/17 19:42:16;;;;;;;35.78;23.80;;;;;;;;;;10334307;28;22414;-61
2023/02/17 19:47:14;;;;;;;139.60;70.28;;;;;;;;;;10337021;28;20068;-62
2023/02/17 19:52:14;;;;;;;113.60;56.42;;;;;;;;;;10338607;28;20108;-62
2023/02/17 19:57:16;;;;;;;62.25;34.10;;;;;;;;;;10334044;28;20052;-62
2023/02/17 20:02:14;;;;;;;88.28;46.60;;;;;;;;;;10337008;28;20318;-62
2023/02/17 20:07:14;;;;;;;43.65;26.55;;;;;;;;;;10334735;28;20067;-62
2023/02/17 20:12:12;;;;;;;158.40;87.35;;;;;;;;;;10337371;28;20067;-62
2023/02/17 20:17:10;;;;;;;34.53;24.10;;;;;;;;;;10315066;28;20076;-62
2023/02/17 20:22:08;;;;;;;43.33;27.52;;;;;;;;;;10335614;28;20064;-61
2023/02/17 20:27:08;;;;;;;40.00;30.45;;;;;;;;;;10327532;28;20075;-62
2023/02/17 20:32:07;;;;;;;35.63;25.30;;;;;;;;;;10340239;28;20064;-62
2023/02/17 20:37:06;;;;;;;29.70;20.55;;;;;;;;;;10332109;28;20642;-62
2023/02/17 20:42:04;;;;;;;24.20;18.98;;;;;;;;;;10310312;28;20078;-62
2023/02/17 20:47:04;;;;;;;28.70;22.50;;;;;;;;;;10337385;28;20080;-62
2023/02/17 20:52:04;;;;;;;24.77;17.63;;;;;;;;;;10330164;28;20071;-62
2023/02/17 20:57:03;;;;;;;18.17;13.60;;;;;;;;;;10331376;28;20079;-62
2023/02/17 21:02:01;;;;;;;17.48;13.90;;;;;;;;;;10324684;28;20068;-61
2023/02/17 21:07:01;;;;;;;18.67;15.27;;;;;;;;;;10337182;28;20080;-61
2023/02/17 21:11:59;;;;;;;15.85;13.20;;;;;;;;;;10342395;28;20068;-60
2023/02/17 21:16:57;;;;;;;20.58;16.30;;;;;;;;;;10339146;28;20067;-62
2023/02/17 21:21:56;;;;;;;17.45;13.55;;;;;;;;;;10341069;28;20082;-59
2023/02/17 21:26:55;;;;;;;32.83;24.58;;;;;;;;;;10339964;28;20088;-61
2023/02/17 21:31:53;;;;;;;17.15;12.73;;;;;;;;;;10341209;28;20078;-62
2023/02/17 21:36:51;;;;;;;13.73;12.02;;;;;;;;;;10342404;28;20064;-61
2023/02/17 21:41:50;;;;;;;16.10;11.98;;;;;;;;;;10339926;28;20064;-61
2023/02/17 21:46:50;;;;;;;18.05;13.23;;;;;;;;;;10328534;28;20585;-61
2023/02/17 21:51:49;;;;;;;17.63;14.05;;;;;;;;;;10336245;28;20092;-62
2023/02/17 21:56:47;;;;;;;20.67;14.18;;;;;;;;;;10333856;28;20071;-62
2023/02/17 22:01:45;;;;;;;16.08;12.27;;;;;;;;;;10316663;28;20072;-62
2023/02/17 22:06:45;;;;;;;14.98;11.68;;;;;;;;;;10334750;28;20068;-62
2023/02/17 22:11:44;;;;;;;14.05;12.10;;;;;;;;;;10337576;28;20076;-61
2023/02/17 22:16:42;;;;;;;15.93;12.18;;;;;;;;;;10337693;28;20509;-62
2023/02/17 22:21:42;;;;;;;16.10;11.73;;;;;;;;;;10330200;28;20075;-63
2023/02/17 22:26:41;;;;;;;15.73;11.85;;;;;;;;;;10335888;28;20204;-62
2023/02/17 22:31:40;;;;;;;16.42;12.15;;;;;;;;;;10336228;28;20079;-61
2023/02/17 22:36:38;;;;;;;16.60;12.63;;;;;;;;;;10334603;28;20064;-62
2023/02/17 22:41:37;;;;;;;16.83;12.68;;;;;;;;;;10323428;28;20084;-62
2023/02/17 22:46:37;;;;;;;15.02;11.95;;;;;;;;;;10336543;28;20064;-61
2023/02/17 22:51:36;;;;;;;14.27;11.52;;;;;;;;;;10336249;28;20518;-61
2023/02/17 22:56:35;;;;;;;16.30;12.50;;;;;;;;;;10357668;28;20453;-61
2023/02/17 23:01:34;;;;;;;14.98;11.55;;;;;;;;;;10337898;28;20068;-61
2023/02/17 23:06:34;;;;;;;16.90;12.52;;;;;;;;;;10333792;28;20087;-62
2023/02/17 23:11:53;;;;;;;14.48;10.93;;;;;;;;;;10335585;28;20517;-62
2023/02/17 23:16:52;;;;;;;16.30;12.00;;;;;;;;;;10331580;28;20461;-62
2023/02/17 23:21:52;;;;;;;15.60;12.43;;;;;;;;;;10334552;28;20063;-63
2023/02/17 23:26:51;;;;;;;17.88;11.88;;;;;;;;;;10332790;28;20085;-62
2023/02/17 23:31:50;;;;;;;15.85;12.30;;;;;;;;;;10324015;28;20083;-60
2023/02/17 23:36:48;;;;;;;27.85;12.27;;;;;;;;;;10330511;28;20453;-62
2023/02/17 23:41:47;;;;;;;17.13;13.73;;;;;;;;;;10332385;28;20071;-61
2023/02/17 23:46:45;;;;;;;17.42;13.07;;;;;;;;;;10328652;28;20074;-61
2023/02/17 23:51:45;;;;;;;21.15;15.88;;;;;;;;;;10337037;28;20438;-62
2023/02/17 23:56:43;;;;;;;18.38;14.40;;;;;;;;;;10334651;28;20098;-62
